Time;durP1;ratioP1;P1;durP2;ratioP2;P2;SDS_P1;SDS_P2;PMS_P1;PMS_P2;Temp;Humidity;BMP_temperature;BMP_pressure;BME280_temperature;BME280_humidity;BME280_pressure;Samples;Min_cycle;Max_cycle;Signal;HPM_P1;HPM_P2
2024/04/21 00:01:20;;;;;;;6.80;4.80;;;;;;;3.80;81.04;100127.48;102828;1259;113397;-71
2024/04/21 00:03:47;;;;;;;6.20;4.70;;;;;;;3.77;80.84;100124.92;103019;1259;138620;-70
2024/04/21 00:06:15;;;;;;;10.70;5.20;;;;;;;3.76;80.47;100121.30;103134;1259;99172;-70
2024/04/21 00:08:41;;;;;;;6.70;4.70;;;;;;;3.73;79.97;100122.86;102950;1259;138794;-67
2024/04/21 00:11:09;;;;;;;6.30;5.00;;;;;;;3.68;79.86;100124.62;103044;1259;99640;-70
2024/04/21 00:13:36;;;;;;;6.90;4.70;;;;;;;3.66;79.74;100127.39;103159;1259;113048;-70
2024/04/21 00:16:04;;;;;;;6.80;4.90;;;;;;;3.61;79.83;100128.61;102700;1259;138587;-69
2024/04/21 00:18:31;;;;;;;7.50;4.80;;;;;;;3.62;79.61;100132.58;104305;1260;97397;-70
2024/04/21 00:20:58;;;;;;;5.50;4.60;;;;;;;3.61;79.48;100132.59;103649;1263;138662;-69
2024/04/21 00:23:26;;;;;;;6.90;4.50;;;;;;;3.61;79.75;100135.33;102843;1259;99310;-70
2024/04/21 00:25:59;;;;;;;6.10;4.40;;;;;;;3.62;79.58;100136.88;104330;1259;112976;-70
2024/04/21 00:28:26;;;;;;;7.10;4.50;;;;;;;3.61;79.22;100136.88;104096;1259;139795;-70
2024/04/21 00:30:53;;;;;;;7.60;4.00;;;;;;;3.60;79.33;100139.80;102936;1259;99042;-68
2024/04/21 00:33:20;;;;;;;7.90;4.70;;;;;;;3.60;79.05;100141.88;102870;1259;138564;-70
2024/04/21 00:35:48;;;;;;;8.00;4.90;;;;;;;3.61;78.78;100145.98;102918;1259;99178;-69
2024/04/21 00:38:15;;;;;;;8.30;4.90;;;;;;;3.62;79.00;100146.66;102849;1259;115090;-69
2024/04/21 00:40:42;;;;;;;8.40;4.90;;;;;;;3.63;78.93;100146.14;102774;1259;138505;-70
2024/04/21 00:43:10;;;;;;;5.50;4.50;;;;;;;3.63;78.69;100142.36;102999;1259;99495;-70
2024/04/21 00:45:41;;;;;;;10.10;4.70;;;;;;;3.61;77.77;100142.55;103209;1259;138291;-71
2024/04/21 00:48:10;;;;;;;5.50;4.30;;;;;;;3.58;77.40;100144.10;103183;1259;99229;-70
2024/04/21 00:50:39;;;;;;;5.40;4.40;;;;;;;3.55;77.33;100138.61;103074;1259;112180;-69
2024/04/21 00:53:07;;;;;;;7.00;3.90;;;;;;;3.54;77.16;100139.64;102808;1263;107246;-69
2024/04/21 00:55:34;;;;;;;5.50;4.50;;;;;;;3.53;77.15;100139.48;102937;1259;99704;-69
2024/04/21 00:58:01;;;;;;;4.60;3.80;;;;;;;3.52;76.41;100143.61;102958;1266;139902;-68
2024/04/21 01:00:30;;;;;;;4.80;3.80;;;;;;;3.49;76.24;100141.58;102903;1259;99188;-69
2024/04/21 01:02:57;;;;;;;5.70;3.80;;;;;;;3.46;76.05;100142.28;102805;1259;138492;-69
2024/04/21 01:05:25;;;;;;;6.60;3.70;;;;;;;3.44;76.13;100146.94;103756;1259;108250;-70
2024/04/21 01:07:52;;;;;;;4.30;3.60;;;;;;;3.41;75.74;100148.15;103425;1261;99687;-70
2024/04/21 01:10:19;;;;;;;6.30;3.60;;;;;;;3.39;75.74;100150.72;102824;1259;138424;-69
2024/04/21 01:12:46;;;;;;;5.60;4.20;;;;;;;3.40;75.47;100147.96;102954;1263;99186;-70
2024/04/21 01:15:14;;;;;;;6.20;3.90;;;;;;;3.39;75.53;100140.92;103086;1263;138415;-69
2024/04/21 01:17:41;;;;;;;6.20;4.20;;;;;;;3.38;75.24;100139.21;103307;1259;107835;-71
2024/04/21 01:20:12;;;;;;;6.10;3.90;;;;;;;3.36;75.44;100142.83;103049;1259;99159;-70
2024/04/21 01:22:42;;;;;;;6.70;3.80;;;;;;;3.36;75.51;100141.29;102897;1259;138751;-70
2024/04/21 01:25:10;;;;;;;5.70;3.60;;;;;;;3.34;75.08;100147.65;103035;1259;99275;-69
2024/04/21 01:27:37;;;;;;;5.70;3.90;;;;;;;3.34;75.55;100142.16;102980;1259;138326;-69
2024/04/21 01:30:05;;;;;;;6.20;3.90;;;;;;;3.32;75.18;100141.30;102964;1259;107259;-69
2024/04/21 01:32:32;;;;;;;5.70;4.10;;;;;;;3.30;74.86;100143.21;102995;1259;99174;-69
2024/04/21 01:34:59;;;;;;;4.90;3.90;;;;;;;3.30;75.03;100146.65;103011;1263;138427;-69
2024/04/21 01:37:26;;;;;;;7.80;4.40;;;;;;;3.30;75.33;100150.95;103029;1260;99130;-69
2024/04/21 01:39:53;;;;;;;5.80;4.10;;;;;;;3.31;75.39;100157.83;102763;1259;138480;-69
2024/04/21 01:42:20;;;;;;;6.30;3.80;;;;;;;3.32;75.42;100158.50;103027;1263;107894;-69
2024/04/21 01:44:47;;;;;;;9.50;3.90;;;;;;;3.33;75.42;100156.59;103047;1259;138533;-69
2024/04/21 01:47:14;;;;;;;6.90;4.40;;;;;;;3.34;75.40;100160.03;102842;1259;107709;-69
2024/04/21 01:49:42;;;;;;;6.20;4.30;;;;;;;3.34;75.25;100162.95;103229;1264;99159;-69
2024/04/21 01:52:09;;;;;;;6.40;3.90;;;;;;;3.36;75.46;100164.14;102702;1263;138919;-69
2024/04/21 01:54:36;;;;;;;6.40;4.20;;;;;;;3.36;75.26;100164.15;102999;1259;106830;-67
2024/04/21 01:57:04;;;;;;;5.10;4.20;;;;;;;3.35;75.23;100164.67;103040;1259;139054;-68
2024/04/21 01:59:31;;;;;;;6.30;4.20;;;;;;;3.34;75.05;100164.15;102989;1263;107843;-67
2024/04/21 02:01:58;;;;;;;6.20;4.00;;;;;;;3.33;75.02;100162.44;103053;1257;99150;-70
2024/04/21 02:04:25;;;;;;;6.60;4.00;;;;;;;3.30;74.42;100158.17;102959;1257;138286;-68
2024/04/21 02:06:54;;;;;;;5.40;4.00;;;;;;;3.26;74.69;100155.43;103196;1260;106788;-69
2024/04/21 02:09:21;;;;;;;7.70;4.30;;;;;;;3.25;74.79;100155.26;103056;1257;138566;-69
2024/04/21 02:11:48;;;;;;;7.50;4.40;;;;;;;3.25;74.84;100157.85;103194;1257;107669;-69
2024/04/21 02:14:15;;;;;;;5.40;3.90;;;;;;;3.23;74.77;100162.48;103168;1257;99152;-69
2024/04/21 02:16:42;;;;;;;5.40;4.20;;;;;;;3.23;74.76;100163.34;103047;1260;139381;-69
2024/04/21 02:19:10;;;;;;;4.70;4.20;;;;;;;3.20;74.57;100165.58;103120;1256;120997;-70
2024/04/21 02:21:37;;;;;;;5.20;4.30;;;;;;;3.21;74.75;100165.92;103205;1257;138657;-70
2024/04/21 02:24:04;;;;;;;6.20;4.40;;;;;;;3.22;74.82;100165.39;103365;1259;107515;-70
2024/04/21 02:26:32;;;;;;;5.10;3.90;;;;;;;3.23;74.80;100160.24;103160;1256;99168;-70
2024/04/21 02:28:59;;;;;;;5.70;3.80;;;;;;;3.20;74.48;100159.05;103219;1260;140554;-71
2024/04/21 02:31:27;;;;;;;6.40;4.00;;;;;;;3.18;74.35;100163.35;103179;1257;107664;-69
2024/04/21 02:33:55;;;;;;;5.40;4.20;;;;;;;3.17;74.38;100168.35;103290;1256;138989;-71
2024/04/21 02:36:22;;;;;;;5.80;4.00;;;;;;;3.17;74.40;100174.52;103153;1257;108254;-70
2024/04/21 02:38:49;;;;;;;6.40;4.00;;;;;;;3.17;74.44;100176.24;103021;1256;140090;-69
2024/04/21 02:41:17;;;;;;;4.30;3.70;;;;;;;3.17;74.39;100177.11;103085;1257;113132;-70
2024/04/21 02:43:44;;;;;;;8.00;4.20;;;;;;;3.17;74.12;100183.46;103065;1259;107924;-70
2024/04/21 02:46:11;;;;;;;5.40;4.00;;;;;;;3.13;74.09;100185.02;104343;1255;138333;-69
2024/04/21 02:48:37;;;;;;;7.80;4.30;;;;;;;3.12;74.03;100184.69;104340;1256;108021;-70
2024/04/21 02:51:05;;;;;;;7.10;4.30;;;;;;;3.10;73.80;100182.30;104259;1256;139226;-69
2024/04/21 02:53:31;;;;;;;5.50;4.20;;;;;;;3.07;73.90;100182.48;104495;1256;111797;-70
2024/04/21 02:55:58;;;;;;;5.70;4.30;;;;;;;3.09;73.96;100183.33;104420;1256;107719;-70
2024/04/21 02:58:25;;;;;;;7.20;4.30;;;;;;;3.10;73.86;100186.59;104371;1256;138312;-68
2024/04/21 03:00:52;;;;;;;7.10;4.10;;;;;;;3.10;73.91;100184.02;104286;1256;106696;-69
2024/04/21 03:03:19;;;;;;;6.10;4.20;;;;;;;3.10;73.69;100185.21;103345;1256;139356;-69
2024/04/21 03:05:55;;;;;;;5.10;3.90;;;;;;;3.11;73.82;100177.30;102453;1256;1002687;-68
2024/04/21 03:08:22;;;;;;;9.20;4.20;;;;;;;3.12;73.87;100174.55;103038;1257;107287;-69
2024/04/21 03:10:49;;;;;;;5.00;4.20;;;;;;;3.10;73.72;100175.58;102947;1262;139504;-69
2024/04/21 03:13:17;;;;;;;11.40;4.90;;;;;;;3.10;73.65;100171.81;103059;1261;108261;-70
2024/04/21 03:15:45;;;;;;;6.50;4.50;;;;;;;3.10;74.02;100167.70;104213;1257;138693;-69
2024/04/21 03:18:12;;;;;;;5.40;4.20;;;;;;;3.08;73.92;100163.58;103184;1257;111883;-69
2024/04/21 03:20:39;;;;;;;5.50;4.20;;;;;;;3.08;73.85;100162.55;103208;1258;107620;-69
2024/04/21 03:23:07;;;;;;;5.90;4.30;;;;;;;3.05;73.69;100165.64;103075;1262;99454;-70
2024/04/21 03:25:34;;;;;;;5.50;4.20;;;;;;;3.04;73.80;100171.81;103122;1257;107482;-69
2024/04/21 03:28:01;;;;;;;5.80;4.30;;;;;;;3.02;73.81;100169.92;103551;1256;138520;-69
2024/04/21 03:30:29;;;;;;;5.10;4.20;;;;;;;3.01;73.77;100169.59;103045;1256;113093;-69
2024/04/21 03:32:55;;;;;;;5.70;4.30;;;;;;;3.00;73.78;100163.75;103055;1256;138592;-69
2024/04/21 03:35:25;;;;;;;6.90;4.30;;;;;;;2.96;73.70;100160.33;103084;1257;100804;-70
2024/04/21 03:37:52;;;;;;;7.40;4.50;;;;;;;2.94;74.07;100164.81;103047;1256;107226;-69
2024/04/21 03:40:19;;;;;;;7.70;4.40;;;;;;;2.94;74.27;100168.08;103188;1256;138767;-69
2024/04/21 03:42:46;;;;;;;6.50;4.50;;;;;;;2.90;73.89;100167.23;103126;1257;111620;-69
2024/04/21 03:45:13;;;;;;;8.70;5.20;;;;;;;2.91;73.94;100171.35;102926;1257;138614;-69
2024/04/21 03:47:41;;;;;;;6.00;4.70;;;;;;;2.90;74.07;100168.61;103226;1256;99446;-67
2024/04/21 03:50:09;;;;;;;6.30;4.50;;;;;;;2.91;74.11;100169.29;103208;1256;107004;-68
2024/04/21 03:52:36;;;;;;;8.80;4.60;;;;;;;2.92;74.13;100171.69;103137;1260;138514;-68
2024/04/21 03:55:03;;;;;;;6.90;4.90;;;;;;;2.94;74.09;100175.29;103140;1256;113473;-69
2024/04/21 03:57:30;;;;;;;7.40;5.10;;;;;;;2.95;74.34;100172.52;102980;1256;138630;-68
2024/04/21 03:59:57;;;;;;;6.40;5.00;;;;;;;2.97;74.31;100178.02;103390;1256;99672;-69
2024/04/21 04:02:25;;;;;;;6.70;4.70;;;;;;;2.97;74.12;100178.36;103095;1260;107967;-69
2024/04/21 04:04:52;;;;;;;9.60;5.10;;;;;;;2.98;74.04;100180.94;102906;1262;138536;-69
2024/04/21 04:07:21;;;;;;;7.60;4.70;;;;;;;2.99;74.06;100178.36;103194;1260;112538;-68
2024/04/21 04:09:49;;;;;;;6.60;5.10;;;;;;;2.96;73.79;100175.96;103032;1256;138345;-69
2024/04/21 04:12:16;;;;;;;6.20;4.60;;;;;;;2.91;73.65;100172.38;103185;1256;99175;-69
2024/04/21 04:14:43;;;;;;;6.30;5.20;;;;;;;2.92;73.74;100177.52;103140;1260;107753;-68
2024/04/21 04:17:11;;;;;;;8.30;5.30;;;;;;;2.92;73.74;100182.52;103166;1261;99233;-69
2024/04/21 04:19:38;;;;;;;5.90;4.80;;;;;;;2.91;73.88;100182.00;103228;1257;112148;-69
2024/04/21 04:22:05;;;;;;;6.30;4.70;;;;;;;2.90;73.86;100182.52;102873;1256;139743;-68
2024/04/21 04:24:32;;;;;;;10.00;5.00;;;;;;;2.91;73.97;100182.86;103257;1259;99246;-69
2024/04/21 04:26:59;;;;;;;6.90;5.40;;;;;;;2.93;74.09;100185.09;103186;1256;139306;-70
2024/04/21 04:29:26;;;;;;;5.70;4.70;;;;;;;2.95;74.38;100181.98;103922;1256;99174;-68
2024/04/21 04:31:53;;;;;;;6.00;4.80;;;;;;;2.99;74.19;100183.33;103248;1256;112304;-68
2024/04/21 04:34:20;;;;;;;6.30;5.40;;;;;;;3.01;74.14;100181.27;103411;1256;138968;-70
2024/04/21 04:36:48;;;;;;;7.30;5.50;;;;;;;3.02;74.12;100183.66;103201;1255;99677;-71
2024/04/21 04:39:15;;;;;;;8.50;5.40;;;;;;;3.05;74.16;100181.79;103177;1259;138520;-69
2024/04/21 04:41:42;;;;;;;5.70;5.00;;;;;;;3.07;73.93;100184.20;103229;1256;99087;-70
2024/04/21 04:44:09;;;;;;;6.30;4.60;;;;;;;3.06;73.90;100185.57;103288;1259;111960;-70
2024/04/21 04:46:36;;;;;;;8.00;5.10;;;;;;;3.09;74.16;100187.27;103015;1256;138581;-70
2024/04/21 04:49:03;;;;;;;7.10;5.20;;;;;;;3.11;74.23;100185.90;103150;1259;99039;-70
2024/04/21 04:51:30;;;;;;;11.60;5.10;;;;;;;3.13;73.88;100191.89;103040;1257;140865;-69
2024/04/21 04:53:57;;;;;;;5.90;4.70;;;;;;;3.16;74.26;100195.33;104510;1256;97190;-68
2024/04/21 04:56:24;;;;;;;5.90;5.10;;;;;;;3.20;74.02;100194.44;104486;1257;111668;-70
2024/04/21 04:58:51;;;;;;;6.30;5.00;;;;;;;3.22;73.98;100197.18;104416;1256;139656;-69
2024/04/21 05:01:21;;;;;;;7.00;4.80;;;;;;;3.26;74.19;100198.39;103620;1256;1002818;-68
2024/04/21 05:03:49;;;;;;;7.30;5.00;;;;;;;3.32;73.90;100204.38;103067;1256;139075;-68
2024/04/21 05:06:17;;;;;;;7.60;5.40;;;;;;;3.37;73.89;100200.91;103150;1261;99142;-69
2024/04/21 05:08:44;;;;;;;9.30;5.20;;;;;;;3.40;73.95;100198.67;103167;1256;112926;-69
2024/04/21 05:11:11;;;;;;;8.10;4.80;;;;;;;3.45;73.83;100204.35;102663;1256;1002885;-68
2024/04/21 05:13:37;;;;;;;8.40;5.70;;;;;;;3.50;73.82;100202.07;104449;1256;97543;-69
2024/04/21 05:16:04;;;;;;;7.10;4.90;;;;;;;3.53;73.87;100202.75;103178;1256;138210;-69
2024/04/21 05:18:32;;;;;;;8.60;4.50;;;;;;;3.57;73.74;100203.92;103191;1256;99148;-70
2024/04/21 05:20:59;;;;;;;8.90;5.00;;;;;;;3.58;73.43;100203.92;102943;1256;138503;-70
2024/04/21 05:23:26;;;;;;;7.00;4.60;;;;;;;3.57;73.00;100199.80;103547;1256;106890;-69
2024/04/21 05:25:53;;;;;;;5.40;4.60;;;;;;;3.55;72.99;100201.18;103057;1256;99164;-70
2024/04/21 05:28:20;;;;;;;10.00;5.10;;;;;;;3.56;73.13;100207.02;102947;1256;138276;-69
2024/04/21 05:31:07;;;;;;;7.50;5.20;;;;;;;3.59;73.50;100201.36;103052;1256;99449;-70
2024/04/21 05:33:34;;;;;;;7.60;5.10;;;;;;;3.64;73.53;100202.88;103461;1256;138212;-70
2024/04/21 05:36:01;;;;;;;8.40;5.20;;;;;;;3.64;73.38;100204.60;103232;1256;107535;-68
2024/04/21 05:38:29;;;;;;;7.10;5.30;;;;;;;3.65;73.30;100210.78;103182;1258;99182;-68
2024/04/21 05:40:55;;;;;;;7.70;5.20;;;;;;;3.64;73.16;100209.07;103021;1256;138311;-69
2024/04/21 05:43:23;;;;;;;7.90;5.20;;;;;;;3.63;73.24;100205.30;103086;1256;99171;-68
2024/04/21 05:45:59;;;;;;;6.40;5.10;;;;;;;3.62;73.31;100209.08;103080;1256;138402;-69
2024/04/21 05:48:26;;;;;;;6.90;5.20;;;;;;;3.61;73.31;100210.64;104292;1256;106658;-69
2024/04/21 05:50:52;;;;;;;6.00;4.80;;;;;;;3.62;73.14;100214.23;104281;1257;138496;-69
2024/04/21 05:53:19;;;;;;;7.80;4.40;;;;;;;3.65;73.38;100214.91;104195;1256;108826;-69
2024/04/21 05:55:47;;;;;;;8.00;5.10;;;;;;;3.69;73.50;100219.20;103041;1256;99059;-66
2024/04/21 05:58:14;;;;;;;9.10;5.20;;;;;;;3.73;73.39;100215.38;104355;1256;138107;-67
2024/04/21 06:00:42;;;;;;;6.80;5.00;;;;;;;3.75;73.57;100215.70;104402;1256;108046;-67
2024/04/21 06:03:08;;;;;;;8.20;5.50;;;;;;;3.78;73.36;100213.48;104336;1256;138622;-67
2024/04/21 06:05:36;;;;;;;7.40;5.00;;;;;;;3.79;73.44;100217.77;103397;1255;108085;-66
2024/04/21 06:08:04;;;;;;;8.30;5.00;;;;;;;3.81;73.24;100218.63;103324;1256;99144;-67
2024/04/21 06:10:31;;;;;;;7.00;5.00;;;;;;;3.82;73.22;100217.23;103139;1256;138400;-65
2024/04/21 06:12:58;;;;;;;11.00;5.60;;;;;;;3.85;73.37;100212.40;103372;1256;107829;-67
2024/04/21 06:15:26;;;;;;;6.40;4.90;;;;;;;3.88;73.38;100211.17;102807;1262;138852;-66
2024/04/21 06:17:53;;;;;;;7.90;5.30;;;;;;;3.92;73.61;100208.73;103113;1259;108515;-67
2024/04/21 06:20:22;;;;;;;7.80;5.20;;;;;;;3.97;73.47;100207.34;103197;1259;99190;-67
2024/04/21 06:22:54;;;;;;;7.30;5.10;;;;;;;4.02;73.49;100204.05;102979;1255;138425;-72
2024/04/21 06:25:21;;;;;;;8.60;5.00;;;;;;;4.07;73.36;100206.07;102871;1259;107641;-73
2024/04/21 06:27:48;;;;;;;9.10;5.20;;;;;;;4.12;73.33;100206.39;102939;1255;139050;-75
2024/04/21 06:30:15;;;;;;;8.20;5.10;;;;;;;4.17;73.41;100202.40;103180;1255;107437;-73
2024/04/21 06:32:42;;;;;;;7.50;5.70;;;;;;;4.21;73.28;100205.29;103203;1256;99130;-74
2024/04/21 06:35:10;;;;;;;7.60;5.30;;;;;;;4.27;73.32;100209.04;103213;1257;112578;-75
2024/04/21 06:37:37;;;;;;;7.10;4.90;;;;;;;4.31;73.11;100205.39;103136;1256;107602;-74
2024/04/21 06:40:04;;;;;;;9.40;5.10;;;;;;;4.32;72.77;100208.49;103114;1256;138885;-75
2024/04/21 06:42:31;;;;;;;6.90;5.50;;;;;;;4.34;73.00;100205.20;103185;1256;108030;-75
2024/04/21 06:44:58;;;;;;;8.80;5.50;;;;;;;4.39;73.56;100208.44;102999;1256;138533;-75
2024/04/21 06:47:25;;;;;;;6.80;5.50;;;;;;;4.46;73.31;100211.98;103106;1259;112224;-75
2024/04/21 06:49:54;;;;;;;7.40;5.60;;;;;;;4.50;73.21;100209.23;103034;1256;107629;-74
2024/04/21 06:52:21;;;;;;;6.60;5.10;;;;;;;4.55;73.29;100205.89;102956;1257;139408;-77
2024/04/21 06:54:48;;;;;;;7.30;5.50;;;;;;;4.62;73.31;100207.71;103088;1259;108519;-77
2024/04/21 06:57:15;;;;;;;6.50;5.20;;;;;;;4.69;73.41;100210.60;102990;1256;138431;-82
2024/04/21 06:59:42;;;;;;;11.60;7.70;;;;;;;4.75;73.30;100208.30;103069;1259;110493;-79
2024/04/21 07:02:10;;;;;;;6.10;5.10;;;;;;;4.85;73.55;100212.00;103105;1256;107482;-80
2024/04/21 07:04:37;;;;;;;8.60;5.60;;;;;;;4.93;73.13;100208.83;103038;1259;138516;-80
2024/04/21 07:07:04;;;;;;;5.60;4.70;;;;;;;5.01;72.94;100210.98;103267;1259;108182;-81
2024/04/21 07:09:32;;;;;;;7.50;5.10;;;;;;;5.06;72.71;100209.22;103085;1256;139480;-80
2024/04/21 07:11:59;;;;;;;8.80;5.20;;;;;;;5.13;72.41;100208.42;103199;1256;112595;-80
2024/04/21 07:14:26;;;;;;;7.40;5.70;;;;;;;5.18;72.14;100205.10;103222;1259;106804;-82
2024/04/21 07:16:53;;;;;;;6.40;5.30;;;;;;;5.24;72.14;100206.08;103019;1256;140081;-81
2024/04/21 07:19:20;;;;;;;7.80;5.50;;;;;;;5.32;72.06;100206.85;102498;1255;1003571;-79
2024/04/21 07:21:47;;;;;;;6.30;5.00;;;;;;;5.42;72.07;100202.25;102341;1256;1002967;-82
2024/04/21 07:24:14;;;;;;;7.90;5.50;;;;;;;5.54;72.09;100199.69;103088;1256;112623;-86
2024/04/21 07:26:40;;;;;;;8.80;5.40;;;;;;;5.60;71.85;100201.17;103079;1255;107933;-82
2024/04/21 07:29:08;;;;;;;7.60;5.60;;;;;;;5.65;71.42;100205.59;102989;1256;139100;-81
2024/04/21 07:31:35;;;;;;;6.20;5.40;;;;;;;5.71;71.71;100200.51;103250;1256;106880;-80
2024/04/21 07:34:02;;;;;;;11.80;5.30;;;;;;;5.76;71.36;100199.07;102924;1257;138460;-81
2024/04/21 07:36:29;;;;;;;6.80;5.20;;;;;;;5.83;71.17;100195.52;101729;1256;1004906;-81
2024/04/21 07:38:56;;;;;;;7.40;5.80;;;;;;;5.88;71.00;100191.48;102974;1256;140992;-77
2024/04/21 07:41:23;;;;;;;6.50;5.50;;;;;;;5.99;71.09;100189.81;103169;1256;99225;-78
2024/04/21 07:43:50;;;;;;;6.70;5.10;;;;;;;6.07;70.75;100191.41;103061;1257;107010;-79
2024/04/21 07:46:16;;;;;;;8.60;5.30;;;;;;;6.20;71.07;100189.33;102996;1255;138722;-78
2024/04/21 07:48:43;;;;;;;6.50;5.30;;;;;;;6.37;71.17;100183.71;103155;1259;112778;-79
2024/04/21 07:51:10;;;;;;;7.10;5.50;;;;;;;6.50;70.69;100180.05;102899;1256;138973;-80
2024/04/21 07:53:40;;;;;;;7.50;5.90;;;;;;;6.59;70.48;100184.02;103070;1259;99190;-82
2024/04/21 07:56:08;;;;;;;7.50;5.30;;;;;;;6.69;70.27;100180.06;103044;1256;108317;-80
2024/04/21 07:58:34;;;;;;;7.70;5.00;;;;;;;6.79;69.71;100184.02;103905;1256;139309;-79
2024/04/21 08:01:08;;;;;;;6.50;4.80;;;;;;;6.89;69.54;100182.83;104477;1255;112184;-82
2024/04/21 08:03:35;;;;;;;8.60;4.70;;;;;;;6.99;68.74;100180.04;104230;1258;138404;-80
2024/04/21 08:06:02;;;;;;;5.50;4.60;;;;;;;7.05;68.62;100176.12;104515;1256;97428;-80
2024/04/21 08:08:29;;;;;;;7.30;4.90;;;;;;;7.12;68.47;100177.71;104437;1259;108516;-81
2024/04/21 08:11:00;;;;;;;6.50;4.90;;;;;;;7.27;68.60;100184.52;104353;1259;138437;-81
2024/04/21 08:13:31;;;;;;;7.40;4.90;;;;;;;7.38;68.47;100186.39;104521;1255;111845;-82
2024/04/21 08:15:58;;;;;;;7.40;4.70;;;;;;;7.43;68.28;100189.39;104338;1259;138432;-81
2024/04/21 08:18:25;;;;;;;7.00;4.60;;;;;;;7.48;67.81;100191.19;104362;1256;97328;-81
2024/04/21 08:20:55;;;;;;;7.10;5.40;;;;;;;7.53;67.60;100195.55;104376;1256;139066;-81
2024/04/21 08:23:22;;;;;;;6.50;5.00;;;;;;;7.59;67.50;100197.21;103448;1256;99162;-80
2024/04/21 08:25:49;;;;;;;6.40;4.80;;;;;;;7.62;67.03;100201.12;103185;1259;112148;-81
2024/04/21 08:28:16;;;;;;;5.50;4.90;;;;;;;7.60;66.86;100194.05;102973;1256;138383;-81
2024/04/21 08:30:44;;;;;;;5.80;4.70;;;;;;;7.61;66.40;100201.14;103098;1255;99161;-81
2024/04/21 08:33:11;;;;;;;4.80;4.20;;;;;;;7.65;66.45;100206.75;103004;1259;138558;-81
2024/04/21 08:35:38;;;;;;;5.50;4.40;;;;;;;7.68;65.98;100208.92;103094;1256;99248;-82
2024/04/21 08:38:05;;;;;;;4.20;3.80;;;;;;;7.67;65.69;100212.58;102387;1259;1002844;-83
2024/04/21 08:40:34;;;;;;;7.50;4.70;;;;;;;7.62;65.00;100213.04;103019;1255;139187;-84
2024/04/21 08:43:01;;;;;;;15.30;6.90;;;;;;;7.57;65.29;100211.61;103262;1256;99670;-82
2024/04/21 08:45:31;;;;;;;5.70;4.40;;;;;;;7.61;65.50;100212.21;103122;1256;138604;-82
2024/04/21 08:47:58;;;;;;;4.80;4.30;;;;;;;7.66;65.10;100210.71;103156;1256;99059;-82
2024/04/21 08:50:27;;;;;;;6.50;4.40;;;;;;;7.71;65.03;100210.77;103177;1256;112670;-81
2024/04/21 08:52:54;;;;;;;4.60;4.10;;;;;;;7.85;65.41;100211.52;102989;1256;138434;-83
2024/04/21 08:55:24;;;;;;;7.00;4.30;;;;;;;8.06;65.45;100207.95;103154;1257;99062;-84
2024/04/21 08:57:51;;;;;;;7.80;4.70;;;;;;;8.26;64.91;100203.32;103014;1256;138258;-76
2024/04/21 09:00:21;;;;;;;8.70;4.50;;;;;;;8.49;64.42;100200.38;103084;1259;99159;-77
2024/04/21 09:02:48;;;;;;;6.60;4.20;;;;;;;8.74;63.92;100204.10;103061;1259;113283;-78
2024/04/21 09:05:15;;;;;;;5.90;4.40;;;;;;;9.01;63.68;100202.69;103104;1255;107213;-78
2024/04/21 09:07:43;;;;;;;8.60;4.20;;;;;;;9.32;63.14;100202.72;103005;1262;99708;-78
2024/04/21 09:10:14;;;;;;;6.40;3.80;;;;;;;9.46;62.20;100204.58;103053;1256;137640;-76
2024/04/21 09:12:41;;;;;;;6.60;4.10;;;;;;;9.50;61.57;100201.67;103265;1259;99155;-76
2024/04/21 09:15:10;;;;;;;5.40;3.80;;;;;;;9.52;61.52;100199.73;103087;1256;138831;-76
2024/04/21 09:17:37;;;;;;;6.10;4.50;;;;;;;9.54;61.34;100200.37;103162;1259;106315;-76
2024/04/21 09:20:06;;;;;;;8.10;4.40;;;;;;;9.59;61.16;100197.44;103203;1259;99286;-76
2024/04/21 09:22:33;;;;;;;4.70;4.20;;;;;;;9.57;60.63;100194.73;103206;1256;138636;-76
2024/04/21 09:24:59;;;;;;;6.00;4.40;;;;;;;9.53;60.67;100193.98;103185;1257;99156;-76
2024/04/21 09:27:29;;;;;;;6.20;4.20;;;;;;;9.55;60.94;100192.38;103156;1259;138415;-76
2024/04/21 09:29:57;;;;;;;5.90;4.20;;;;;;;9.53;60.41;100192.61;103109;1256;107138;-75
2024/04/21 09:32:24;;;;;;;4.20;3.80;;;;;;;9.43;59.86;100193.55;103217;1256;99139;-75
2024/04/21 09:34:51;;;;;;;4.40;4.00;;;;;;;9.26;59.09;100191.61;103044;1256;137585;-73
2024/04/21 09:37:19;;;;;;;5.80;3.80;;;;;;;9.06;59.36;100191.63;103152;1256;99265;-73
2024/04/21 09:39:47;;;;;;;5.40;3.80;;;;;;;8.97;59.99;100191.54;103099;1260;137710;-75
2024/04/21 09:42:15;;;;;;;7.00;4.20;;;;;;;8.89;59.62;100189.83;103160;1259;108683;-74
2024/04/21 09:44:43;;;;;;;3.50;3.20;;;;;;;8.77;59.48;100189.97;103015;1261;99258;-75
2024/04/21 09:47:13;;;;;;;4.50;3.50;;;;;;;8.69;59.85;100194.52;103187;1257;108446;-74
2024/04/21 09:49:42;;;;;;;6.10;3.80;;;;;;;8.61;59.47;100194.88;103107;1256;99273;-75
2024/04/21 09:52:11;;;;;;;4.70;3.80;;;;;;;8.52;59.45;100191.46;103002;1256;138704;-74
2024/04/21 09:54:38;;;;;;;5.50;3.90;;;;;;;8.44;59.64;100192.88;103043;1256;107045;-74
2024/04/21 09:57:09;;;;;;;5.50;4.20;;;;;;;8.41;59.68;100193.30;102981;1256;137829;-74
2024/04/21 09:59:38;;;;;;;4.70;3.80;;;;;;;8.35;59.80;100195.52;103077;1256;107708;-75
2024/04/21 10:02:16;;;;;;;4.80;3.60;;;;;;;8.26;59.74;100200.56;103138;1256;99198;-74
2024/04/21 10:04:49;;;;;;;4.70;3.80;;;;;;;8.18;59.93;100202.80;102816;1256;137430;-74
2024/04/21 10:07:18;;;;;;;4.40;3.70;;;;;;;8.13;59.89;100203.80;103083;1259;107697;-73
2024/04/21 10:09:46;;;;;;;6.30;3.70;;;;;;;8.06;60.10;100202.38;103003;1257;138208;-75
2024/04/21 10:12:13;;;;;;;5.20;3.70;;;;;;;8.01;59.95;100199.56;103192;1255;107892;-75
2024/04/21 10:14:41;;;;;;;8.20;4.10;;;;;;;7.98;60.35;100197.39;103279;1259;99171;-74
2024/04/21 10:17:08;;;;;;;5.30;3.90;;;;;;;7.92;59.79;100196.31;103149;1259;138029;-77
2024/04/21 10:19:35;;;;;;;5.80;4.20;;;;;;;7.84;60.30;100195.27;103148;1259;106166;-74
2024/04/21 10:22:07;;;;;;;6.00;3.90;;;;;;;7.81;60.63;100198.95;102969;1255;136765;-74
2024/04/21 10:24:36;;;;;;;5.10;3.80;;;;;;;7.81;60.92;100200.88;103125;1256;108057;-75
2024/04/21 10:27:04;;;;;;;4.60;3.80;;;;;;;7.81;61.14;100201.73;103074;1259;137836;-75
2024/04/21 10:29:32;;;;;;;8.80;4.20;;;;;;;7.82;61.20;100200.68;103258;1259;113790;-75
2024/04/21 10:32:11;;;;;;;5.80;3.80;;;;;;;7.84;61.35;100196.46;103034;1256;108153;-76
2024/04/21 10:34:43;;;;;;;5.20;3.50;;;;;;;7.88;61.16;100196.21;103091;1256;137654;-76
2024/04/21 10:37:15;;;;;;;5.40;3.80;;;;;;;7.87;61.10;100195.02;102993;1255;107084;-73
2024/04/21 10:39:42;;;;;;;9.40;4.10;;;;;;;7.87;60.88;100193.45;103028;1259;137852;-75
2024/04/21 10:42:11;;;;;;;6.70;3.80;;;;;;;7.85;60.99;100194.18;103197;1259;112562;-74
2024/04/21 10:44:39;;;;;;;6.60;4.60;;;;;;;7.87;61.07;100200.04;103211;1259;107748;-75
2024/04/21 10:47:06;;;;;;;5.60;3.90;;;;;;;7.93;61.49;100198.90;102861;1256;137739;-74
2024/04/21 10:49:33;;;;;;;4.80;4.00;;;;;;;8.02;61.76;100197.98;103169;1256;108778;-73
2024/04/21 10:52:00;;;;;;;5.10;4.00;;;;;;;8.13;62.05;100201.38;103058;1256;137768;-70
2024/04/21 10:54:27;;;;;;;5.90;4.80;;;;;;;8.20;62.03;100202.41;103071;1256;113055;-71
2024/04/21 10:56:54;;;;;;;8.00;4.60;;;;;;;8.26;62.01;100207.14;102961;1259;137803;-71
2024/04/21 10:59:23;;;;;;;5.50;4.20;;;;;;;8.31;62.06;100206.84;103074;1259;99152;-73
2024/04/21 11:01:50;;;;;;;5.20;4.20;;;;;;;8.34;61.98;100213.02;103032;1257;107823;-73
2024/04/21 11:04:21;;;;;;;7.40;4.50;;;;;;;8.37;61.98;100209.52;102963;1256;137632;-76
2024/04/21 11:06:48;;;;;;;5.10;4.30;;;;;;;8.39;61.90;100213.27;103090;1256;111904;-74
2024/04/21 11:09:15;;;;;;;5.70;4.60;;;;;;;8.44;62.16;100214.38;102973;1256;137807;-73
2024/04/21 11:11:42;;;;;;;6.00;4.10;;;;;;;8.49;62.19;100215.65;103163;1256;99250;-74
2024/04/21 11:14:09;;;;;;;5.10;3.40;;;;;;;8.51;61.85;100221.14;103112;1257;107802;-74
2024/04/21 11:16:36;;;;;;;8.00;3.90;;;;;;;8.49;61.76;100221.52;103115;1256;137582;-74
2024/04/21 11:19:03;;;;;;;4.20;3.50;;;;;;;8.46;61.80;100224.88;103172;1259;113059;-74
2024/04/21 11:21:30;;;;;;;4.50;4.00;;;;;;;8.39;61.75;100230.08;102985;1259;137755;-73